To NAV CANADA Home Page Login to a new session Search on AWWS site Feedback and Comments Disclaimer Vers la page française équivalente Tips FAQ What's new on the site To the Forecasts and Observations / NOTAM section To "File a Flight Plan" website Publications and other links Update of the User's profile FIC Telephone Numbers My Weather Data Folder Route Weather Data Regional Weather Data Local Weather Data To the Forecasts and Observations / NOTAM section
Request Generated 05/25/2017 at 01:11:50 UTC . Weather information available at that time is displayed.

METAR/TAF

KITCHENER/WATERLOO/ON    (show WxCam)

METAR CYKF 250100Z AUTO 08010KT 9SM -RA BKN070 OVC086 15/10 A2963 RMK
SLP033 DENSITY ALT 1500FT=
SPECI CYKF 250022Z AUTO 09009KT 9SM -RA OVC090 15/09 A2963 RMK SLP034
DENSITY ALT 1600FT=
METAR CYKF 250000Z AUTO 07008KT 9SM OVC095 15/10 A2962 RMK SLP031
DENSITY ALT 1600FT=
SPECI CYKF 242325Z AUTO 07008KT 9SM BKN095 OVC130 15/10 A2962 RMK
SLP032 DENSITY ALT 1600FT=
METAR CYKF 242300Z AUTO 09011G16KT 9SM -RA FEW060 OVC098 16/09 A2962
RMK SLP033 DENSITY ALT 1700FT=

TAF CYKF 241938Z 2420/2508 12010KT P6SM BKN120 TEMPO 2422/2505 5SM
-SHRA BR BKN025 OVC090
FM250500 09010KT P6SM -RA SCT015 OVC025 TEMPO 2505/2508 5SM -RA
BR BKN015 OVC025 PROB30 2506/2508 06008KT 2SM -RA BR BKN005
OVC025
RMK FCST BASED ON AUTO OBS. NXT FCST BY 250200Z=
Your time UTC time
Weather data provided by Environment Canada and NAV CANADA